sensor_id;sensor_type;location;lat;lon;timestamp;P1;durP1;ratioP1;P2;durP2;ratioP2
33810;SDS011;20119;48.334;16.206;2023-11-21T00:02:29;13.55;;;8.15;;
33810;SDS011;20119;48.334;16.206;2023-11-21T00:05:01;19.40;;;8.75;;
33810;SDS011;20119;48.334;16.206;2023-11-21T00:07:33;14.45;;;8.55;;
33810;SDS011;20119;48.334;16.206;2023-11-21T00:10:01;19.50;;;9.05;;
33810;SDS011;20119;48.334;16.206;2023-11-21T00:12:33;15.50;;;8.18;;
33810;SDS011;20119;48.334;16.206;2023-11-21T00:17:35;19.75;;;9.27;;
33810;SDS011;20119;48.334;16.206;2023-11-21T00:20:08;20.48;;;10.85;;
33810;SDS011;20119;48.334;16.206;2023-11-21T00:22:38;23.88;;;12.80;;
33810;SDS011;20119;48.334;16.206;2023-11-21T00:25:06;25.23;;;13.40;;
33810;SDS011;20119;48.334;16.206;2023-11-21T00:27:34;25.80;;;13.10;;
33810;SDS011;20119;48.334;16.206;2023-11-21T00:30:02;25.13;;;12.68;;
33810;SDS011;20119;48.334;16.206;2023-11-21T00:32:37;22.88;;;13.25;;
33810;SDS011;20119;48.334;16.206;2023-11-21T00:35:07;23.45;;;13.82;;
33810;SDS011;20119;48.334;16.206;2023-11-21T00:37:35;21.38;;;13.10;;
33810;SDS011;20119;48.334;16.206;2023-11-21T00:40:05;23.73;;;16.10;;
33810;SDS011;20119;48.334;16.206;2023-11-21T00:42:33;24.83;;;14.65;;
33810;SDS011;20119;48.334;16.206;2023-11-21T00:45:01;26.88;;;13.55;;
33810;SDS011;20119;48.334;16.206;2023-11-21T00:47:29;25.75;;;13.40;;
33810;SDS011;20119;48.334;16.206;2023-11-21T00:49:58;25.83;;;15.07;;
33810;SDS011;20119;48.334;16.206;2023-11-21T00:52:27;19.80;;;11.75;;
33810;SDS011;20119;48.334;16.206;2023-11-21T00:55:06;24.95;;;14.30;;
33810;SDS011;20119;48.334;16.206;2023-11-21T00:57:43;21.20;;;11.25;;
33810;SDS011;20119;48.334;16.206;2023-11-21T01:00:15;17.05;;;11.18;;
33810;SDS011;20119;48.334;16.206;2023-11-21T01:02:48;17.48;;;10.88;;
33810;SDS011;20119;48.334;16.206;2023-11-21T01:05:34;18.80;;;10.43;;
33810;SDS011;20119;48.334;16.206;2023-11-21T01:10:41;15.55;;;9.05;;
33810;SDS011;20119;48.334;16.206;2023-11-21T01:13:15;14.93;;;8.38;;
33810;SDS011;20119;48.334;16.206;2023-11-21T01:16:16;16.77;;;8.38;;
33810;SDS011;20119;48.334;16.206;2023-11-21T01:21:20;13.52;;;7.00;;
33810;SDS011;20119;48.334;16.206;2023-11-21T01:23:54;13.68;;;7.22;;
33810;SDS011;20119;48.334;16.206;2023-11-21T01:26:29;14.77;;;7.15;;
33810;SDS011;20119;48.334;16.206;2023-11-21T01:29:03;12.00;;;6.93;;
33810;SDS011;20119;48.334;16.206;2023-11-21T01:31:39;13.57;;;6.50;;
33810;SDS011;20119;48.334;16.206;2023-11-21T01:37:02;12.80;;;6.70;;
33810;SDS011;20119;48.334;16.206;2023-11-21T01:39:36;9.32;;;6.70;;
33810;SDS011;20119;48.334;16.206;2023-11-21T01:49:53;10.60;;;6.65;;
33810;SDS011;20119;48.334;16.206;2023-11-21T01:52:35;13.80;;;7.65;;
33810;SDS011;20119;48.334;16.206;2023-11-21T01:55:15;13.73;;;7.57;;
33810;SDS011;20119;48.334;16.206;2023-11-21T01:57:50;14.75;;;7.75;;
33810;SDS011;20119;48.334;16.206;2023-11-21T02:00:38;12.15;;;7.25;;
33810;SDS011;20119;48.334;16.206;2023-11-21T02:03:19;14.38;;;7.28;;
33810;SDS011;20119;48.334;16.206;2023-11-21T02:05:59;11.30;;;6.82;;
33810;SDS011;20119;48.334;16.206;2023-11-21T02:08:34;12.00;;;6.97;;
33810;SDS011;20119;48.334;16.206;2023-11-21T02:11:12;13.57;;;6.45;;
33810;SDS011;20119;48.334;16.206;2023-11-21T02:13:59;11.95;;;7.00;;
33810;SDS011;20119;48.334;16.206;2023-11-21T02:16:34;15.95;;;7.30;;
33810;SDS011;20119;48.334;16.206;2023-11-21T02:19:08;14.75;;;7.28;;
33810;SDS011;20119;48.334;16.206;2023-11-21T02:21:43;13.40;;;7.43;;
33810;SDS011;20119;48.334;16.206;2023-11-21T02:24:26;12.95;;;7.88;;
33810;SDS011;20119;48.334;16.206;2023-11-21T02:26:58;16.45;;;8.35;;
33810;SDS011;20119;48.334;16.206;2023-11-21T02:29:37;19.42;;;9.95;;
33810;SDS011;20119;48.334;16.206;2023-11-21T02:32:09;16.02;;;9.55;;
33810;SDS011;20119;48.334;16.206;2023-11-21T02:34:41;24.15;;;11.18;;
33810;SDS011;20119;48.334;16.206;2023-11-21T02:37:27;23.17;;;9.63;;
33810;SDS011;20119;48.334;16.206;2023-11-21T02:40:09;15.60;;;8.77;;
33810;SDS011;20119;48.334;16.206;2023-11-21T02:42:47;16.67;;;9.80;;
33810;SDS011;20119;48.334;16.206;2023-11-21T02:45:26;20.10;;;10.83;;
33810;SDS011;20119;48.334;16.206;2023-11-21T02:48:09;25.10;;;13.85;;
33810;SDS011;20119;48.334;16.206;2023-11-21T02:53:26;26.98;;;13.75;;
33810;SDS011;20119;48.334;16.206;2023-11-21T02:56:21;23.33;;;12.93;;
33810;SDS011;20119;48.334;16.206;2023-11-21T02:58:55;18.90;;;11.75;;
33810;SDS011;20119;48.334;16.206;2023-11-21T03:01:41;19.00;;;11.05;;
33810;SDS011;20119;48.334;16.206;2023-11-21T03:04:30;22.10;;;11.80;;
33810;SDS011;20119;48.334;16.206;2023-11-21T03:09:54;19.27;;;10.90;;
33810;SDS011;20119;48.334;16.206;2023-11-21T03:12:28;16.30;;;10.02;;
33810;SDS011;20119;48.334;16.206;2023-11-21T03:14:58;19.98;;;10.60;;
33810;SDS011;20119;48.334;16.206;2023-11-21T03:17:37;19.17;;;10.85;;
33810;SDS011;20119;48.334;16.206;2023-11-21T03:20:14;15.80;;;9.13;;
33810;SDS011;20119;48.334;16.206;2023-11-21T03:22:44;13.37;;;7.97;;
33810;SDS011;20119;48.334;16.206;2023-11-21T03:25:16;17.38;;;7.93;;
33810;SDS011;20119;48.334;16.206;2023-11-21T03:27:52;15.52;;;7.07;;
33810;SDS011;20119;48.334;16.206;2023-11-21T03:30:25;14.25;;;6.15;;
33810;SDS011;20119;48.334;16.206;2023-11-21T03:33:17;13.82;;;6.30;;
33810;SDS011;20119;48.334;16.206;2023-11-21T03:35:54;13.25;;;6.40;;
33810;SDS011;20119;48.334;16.206;2023-11-21T03:38:25;13.43;;;6.57;;
33810;SDS011;20119;48.334;16.206;2023-11-21T03:41:05;10.57;;;6.18;;
33810;SDS011;20119;48.334;16.206;2023-11-21T03:43:49;12.45;;;6.05;;
33810;SDS011;20119;48.334;16.206;2023-11-21T03:46:21;13.98;;;5.88;;
33810;SDS011;20119;48.334;16.206;2023-11-21T03:48:54;17.48;;;6.40;;
33810;SDS011;20119;48.334;16.206;2023-11-21T03:51:27;14.10;;;6.28;;
33810;SDS011;20119;48.334;16.206;2023-11-21T03:53:57;16.70;;;6.53;;
33810;SDS011;20119;48.334;16.206;2023-11-21T04:01:45;14.90;;;6.78;;
33810;SDS011;20119;48.334;16.206;2023-11-21T04:04:16;14.07;;;6.65;;
33810;SDS011;20119;48.334;16.206;2023-11-21T04:06:50;13.68;;;7.00;;
33810;SDS011;20119;48.334;16.206;2023-11-21T04:09:22;12.43;;;6.47;;
33810;SDS011;20119;48.334;16.206;2023-11-21T04:11:51;10.15;;;6.65;;
33810;SDS011;20119;48.334;16.206;2023-11-21T04:14:24;9.82;;;6.47;;
33810;SDS011;20119;48.334;16.206;2023-11-21T04:17:03;12.80;;;6.85;;
33810;SDS011;20119;48.334;16.206;2023-11-21T04:19:41;18.20;;;7.82;;
33810;SDS011;20119;48.334;16.206;2023-11-21T04:24:47;11.50;;;6.90;;
33810;SDS011;20119;48.334;16.206;2023-11-21T04:27:25;13.40;;;7.05;;
33810;SDS011;20119;48.334;16.206;2023-11-21T04:29:56;11.68;;;6.25;;
33810;SDS011;20119;48.334;16.206;2023-11-21T04:32:37;10.68;;;6.30;;
33810;SDS011;20119;48.334;16.206;2023-11-21T04:35:21;12.60;;;6.07;;
33810;SDS011;20119;48.334;16.206;2023-11-21T04:37:59;15.77;;;7.30;;
33810;SDS011;20119;48.334;16.206;2023-11-21T04:40:36;9.73;;;5.93;;
33810;SDS011;20119;48.334;16.206;2023-11-21T04:43:09;10.57;;;6.07;;
33810;SDS011;20119;48.334;16.206;2023-11-21T04:45:43;10.05;;;6.30;;
33810;SDS011;20119;48.334;16.206;2023-11-21T04:48:21;12.15;;;6.80;;
33810;SDS011;20119;48.334;16.206;2023-11-21T04:51:04;10.30;;;6.47;;
33810;SDS011;20119;48.334;16.206;2023-11-21T04:53:43;14.65;;;7.65;;
33810;SDS011;20119;48.334;16.206;2023-11-21T04:56:16;13.75;;;6.07;;
33810;SDS011;20119;48.334;16.206;2023-11-21T04:58:46;14.25;;;6.93;;
33810;SDS011;20119;48.334;16.206;2023-11-21T05:01:18;13.32;;;7.30;;
33810;SDS011;20119;48.334;16.206;2023-11-21T05:03:53;10.57;;;7.35;;
33810;SDS011;20119;48.334;16.206;2023-11-21T05:09:02;15.25;;;7.82;;
33810;SDS011;20119;48.334;16.206;2023-11-21T05:11:52;16.83;;;7.82;;
33810;SDS011;20119;48.334;16.206;2023-11-21T05:14:23;13.93;;;8.50;;
33810;SDS011;20119;48.334;16.206;2023-11-21T05:16:52;13.70;;;8.20;;
33810;SDS011;20119;48.334;16.206;2023-11-21T05:19:32;18.00;;;9.13;;
33810;SDS011;20119;48.334;16.206;2023-11-21T05:22:07;42.08;;;25.80;;
33810;SDS011;20119;48.334;16.206;2023-11-21T05:24:41;53.33;;;32.50;;
33810;SDS011;20119;48.334;16.206;2023-11-21T05:27:10;43.13;;;21.65;;
33810;SDS011;20119;48.334;16.206;2023-11-21T05:29:42;33.05;;;21.00;;
33810;SDS011;20119;48.334;16.206;2023-11-21T05:32:19;28.10;;;17.02;;
33810;SDS011;20119;48.334;16.206;2023-11-21T05:34:53;22.75;;;13.07;;
33810;SDS011;20119;48.334;16.206;2023-11-21T05:37:27;21.80;;;13.65;;
33810;SDS011;20119;48.334;16.206;2023-11-21T05:40:03;22.40;;;13.60;;
33810;SDS011;20119;48.334;16.206;2023-11-21T05:42:34;19.00;;;12.90;;
33810;SDS011;20119;48.334;16.206;2023-11-21T05:45:08;28.02;;;15.48;;
33810;SDS011;20119;48.334;16.206;2023-11-21T05:47:41;25.48;;;14.95;;
33810;SDS011;20119;48.334;16.206;2023-11-21T05:50:20;26.95;;;14.73;;
33810;SDS011;20119;48.334;16.206;2023-11-21T05:52:52;31.55;;;17.90;;
33810;SDS011;20119;48.334;16.206;2023-11-21T05:55:29;32.60;;;18.77;;
33810;SDS011;20119;48.334;16.206;2023-11-21T06:00:36;49.80;;;25.20;;
33810;SDS011;20119;48.334;16.206;2023-11-21T06:03:15;67.45;;;32.80;;
33810;SDS011;20119;48.334;16.206;2023-11-21T06:05:50;41.28;;;22.27;;
33810;SDS011;20119;48.334;16.206;2023-11-21T06:08:23;37.83;;;22.52;;
33810;SDS011;20119;48.334;16.206;2023-11-21T06:10:53;36.63;;;21.60;;
33810;SDS011;20119;48.334;16.206;2023-11-21T06:13:26;39.47;;;22.73;;
33810;SDS011;20119;48.334;16.206;2023-11-21T06:15:59;30.73;;;20.27;;
33810;SDS011;20119;48.334;16.206;2023-11-21T06:18:33;35.13;;;21.08;;
33810;SDS011;20119;48.334;16.206;2023-11-21T06:21:08;30.50;;;18.33;;
33810;SDS011;20119;48.334;16.206;2023-11-21T06:23:40;32.25;;;19.45;;
33810;SDS011;20119;48.334;16.206;2023-11-21T06:31:18;22.15;;;14.10;;
33810;SDS011;20119;48.334;16.206;2023-11-21T06:33:54;21.63;;;14.35;;
33810;SDS011;20119;48.334;16.206;2023-11-21T06:36:30;17.52;;;13.18;;
33810;SDS011;20119;48.334;16.206;2023-11-21T06:39:00;18.98;;;13.52;;
33810;SDS011;20119;48.334;16.206;2023-11-21T06:41:33;19.58;;;12.77;;
33810;SDS011;20119;48.334;16.206;2023-11-21T06:44:05;18.38;;;12.68;;
33810;SDS011;20119;48.334;16.206;2023-11-21T06:46:38;21.35;;;13.30;;
33810;SDS011;20119;48.334;16.206;2023-11-21T06:49:10;26.95;;;13.65;;
33810;SDS011;20119;48.334;16.206;2023-11-21T06:51:50;28.83;;;14.88;;
33810;SDS011;20119;48.334;16.206;2023-11-21T06:54:21;26.08;;;15.98;;
33810;SDS011;20119;48.334;16.206;2023-11-21T06:56:52;26.27;;;15.95;;
33810;SDS011;20119;48.334;16.206;2023-11-21T06:59:23;32.20;;;17.40;;
33810;SDS011;20119;48.334;16.206;2023-11-21T07:02:00;26.10;;;16.15;;
33810;SDS011;20119;48.334;16.206;2023-11-21T07:04:39;26.83;;;16.55;;
33810;SDS011;20119;48.334;16.206;2023-11-21T07:07:20;29.38;;;17.83;;
33810;SDS011;20119;48.334;16.206;2023-11-21T07:12:29;31.17;;;17.33;;
33810;SDS011;20119;48.334;16.206;2023-11-21T07:25:34;28.35;;;14.90;;
33810;SDS011;20119;48.334;16.206;2023-11-21T07:30:46;23.50;;;13.20;;
33810;SDS011;20119;48.334;16.206;2023-11-21T07:36:03;22.50;;;13.55;;
33810;SDS011;20119;48.334;16.206;2023-11-21T07:43:58;17.85;;;12.18;;
33810;SDS011;20119;48.334;16.206;2023-11-21T07:51:50;15.93;;;10.10;;
33810;SDS011;20119;48.334;16.206;2023-11-21T08:04:59;13.38;;;6.45;;
33810;SDS011;20119;48.334;16.206;2023-11-21T08:07:47;10.98;;;5.70;;
33810;SDS011;20119;48.334;16.206;2023-11-21T08:13:02;9.38;;;4.78;;
33810;SDS011;20119;48.334;16.206;2023-11-21T08:15:42;10.00;;;4.70;;
33810;SDS011;20119;48.334;16.206;2023-11-21T08:18:25;8.63;;;4.80;;
33810;SDS011;20119;48.334;16.206;2023-11-21T08:28:49;10.35;;;4.80;;
33810;SDS011;20119;48.334;16.206;2023-11-21T08:31:25;12.43;;;4.60;;
33810;SDS011;20119;48.334;16.206;2023-11-21T08:47:00;12.35;;;5.68;;
33810;SDS011;20119;48.334;16.206;2023-11-21T09:02:30;9.98;;;5.40;;
33810;SDS011;20119;48.334;16.206;2023-11-21T09:05:20;11.13;;;5.68;;
33810;SDS011;20119;48.334;16.206;2023-11-21T09:15:49;13.20;;;6.03;;
33810;SDS011;20119;48.334;16.206;2023-11-21T09:18:34;9.32;;;5.90;;
33810;SDS011;20119;48.334;16.206;2023-11-21T09:21:15;13.10;;;5.78;;
33810;SDS011;20119;48.334;16.206;2023-11-21T09:23:51;10.82;;;6.03;;
33810;SDS011;20119;48.334;16.206;2023-11-21T09:26:40;14.43;;;5.90;;
33810;SDS011;20119;48.334;16.206;2023-11-21T09:29:15;9.98;;;5.32;;
33810;SDS011;20119;48.334;16.206;2023-11-21T09:31:55;12.45;;;5.80;;
33810;SDS011;20119;48.334;16.206;2023-11-21T09:37:12;10.77;;;5.65;;
33810;SDS011;20119;48.334;16.206;2023-11-21T09:39:48;13.00;;;5.72;;
33810;SDS011;20119;48.334;16.206;2023-11-21T09:42:25;10.95;;;5.60;;
33810;SDS011;20119;48.334;16.206;2023-11-21T09:45:09;11.32;;;5.70;;
33810;SDS011;20119;48.334;16.206;2023-11-21T09:47:55;11.45;;;5.53;;
33810;SDS011;20119;48.334;16.206;2023-11-21T09:53:13;10.82;;;5.93;;
33810;SDS011;20119;48.334;16.206;2023-11-21T09:55:54;13.95;;;6.10;;
33810;SDS011;20119;48.334;16.206;2023-11-21T09:58:32;10.90;;;6.03;;
33810;SDS011;20119;48.334;16.206;2023-11-21T10:01:06;12.55;;;5.90;;
33810;SDS011;20119;48.334;16.206;2023-11-21T10:03:40;11.48;;;5.68;;
33810;SDS011;20119;48.334;16.206;2023-11-21T10:08:57;12.07;;;4.97;;
33810;SDS011;20119;48.334;16.206;2023-11-21T10:19:34;9.57;;;4.25;;
33810;SDS011;20119;48.334;16.206;2023-11-21T10:37:53;8.60;;;3.45;;
33810;SDS011;20119;48.334;16.206;2023-11-21T10:40:49;8.57;;;3.38;;
33810;SDS011;20119;48.334;16.206;2023-11-21T10:43:32;8.50;;;3.55;;
33810;SDS011;20119;48.334;16.206;2023-11-21T10:46:08;8.40;;;3.40;;
33810;SDS011;20119;48.334;16.206;2023-11-21T10:48:46;10.52;;;3.40;;
33810;SDS011;20119;48.334;16.206;2023-11-21T10:51:36;7.28;;;3.10;;
33810;SDS011;20119;48.334;16.206;2023-11-21T10:54:44;9.40;;;3.10;;
33810;SDS011;20119;48.334;16.206;2023-11-21T10:57:29;9.82;;;3.47;;
33810;SDS011;20119;48.334;16.206;2023-11-21T11:00:06;5.65;;;2.88;;
33810;SDS011;20119;48.334;16.206;2023-11-21T11:10:41;8.73;;;2.83;;
33810;SDS011;20119;48.334;16.206;2023-11-21T11:13:30;9.32;;;3.20;;
33810;SDS011;20119;48.334;16.206;2023-11-21T11:16:07;8.25;;;3.20;;
33810;SDS011;20119;48.334;16.206;2023-11-21T11:18:44;7.63;;;3.30;;
33810;SDS011;20119;48.334;16.206;2023-11-21T11:29:18;7.28;;;3.20;;
33810;SDS011;20119;48.334;16.206;2023-11-21T11:42:32;6.78;;;3.00;;
33810;SDS011;20119;48.334;16.206;2023-11-21T12:16:15;9.65;;;3.40;;
33810;SDS011;20119;48.334;16.206;2023-11-21T12:18:45;8.85;;;3.13;;
33810;SDS011;20119;48.334;16.206;2023-11-21T12:21:21;8.00;;;3.25;;
33810;SDS011;20119;48.334;16.206;2023-11-21T12:23:55;12.50;;;3.47;;
33810;SDS011;20119;48.334;16.206;2023-11-21T12:29:12;6.90;;;2.83;;
33810;SDS011;20119;48.334;16.206;2023-11-21T12:49:54;7.78;;;3.05;;
33810;SDS011;20119;48.334;16.206;2023-11-21T12:52:42;6.47;;;2.92;;
33810;SDS011;20119;48.334;16.206;2023-11-21T13:59:04;10.63;;;6.13;;
33810;SDS011;20119;48.334;16.206;2023-11-21T14:01:54;11.30;;;6.40;;
33810;SDS011;20119;48.334;16.206;2023-11-21T14:10:01;12.48;;;7.53;;
33810;SDS011;20119;48.334;16.206;2023-11-21T14:12:34;14.27;;;8.32;;
33810;SDS011;20119;48.334;16.206;2023-11-21T14:15:19;13.63;;;8.32;;
33810;SDS011;20119;48.334;16.206;2023-11-21T14:17:59;13.70;;;8.00;;
33810;SDS011;20119;48.334;16.206;2023-11-21T14:20:38;12.60;;;8.18;;
33810;SDS011;20119;48.334;16.206;2023-11-21T14:23:21;14.52;;;8.68;;
33810;SDS011;20119;48.334;16.206;2023-11-21T14:25:56;14.50;;;8.32;;
33810;SDS011;20119;48.334;16.206;2023-11-21T14:28:33;13.82;;;8.70;;
33810;SDS011;20119;48.334;16.206;2023-11-21T14:31:05;11.57;;;8.25;;
33810;SDS011;20119;48.334;16.206;2023-11-21T14:33:39;16.70;;;8.82;;
33810;SDS011;20119;48.334;16.206;2023-11-21T14:38:38;16.15;;;9.93;;
33810;SDS011;20119;48.334;16.206;2023-11-21T14:41:16;15.70;;;9.77;;
33810;SDS011;20119;48.334;16.206;2023-11-21T14:43:54;11.57;;;9.40;;
33810;SDS011;20119;48.334;16.206;2023-11-21T14:46:42;15.57;;;10.60;;
33810;SDS011;20119;48.334;16.206;2023-11-21T14:49:16;19.90;;;11.93;;
33810;SDS011;20119;48.334;16.206;2023-11-21T14:51:53;14.98;;;10.80;;
33810;SDS011;20119;48.334;16.206;2023-11-21T14:54:33;16.70;;;12.30;;
33810;SDS011;20119;48.334;16.206;2023-11-21T14:57:13;14.48;;;11.23;;
33810;SDS011;20119;48.334;16.206;2023-11-21T14:59:50;17.13;;;11.07;;
33810;SDS011;20119;48.334;16.206;2023-11-21T15:02:26;17.13;;;10.63;;
33810;SDS011;20119;48.334;16.206;2023-11-21T15:05:10;16.63;;;10.00;;
33810;SDS011;20119;48.334;16.206;2023-11-21T15:07:47;13.88;;;10.15;;
33810;SDS011;20119;48.334;16.206;2023-11-21T15:10:22;18.15;;;10.48;;
33810;SDS011;20119;48.334;16.206;2023-11-21T15:13:13;14.27;;;10.60;;
33810;SDS011;20119;48.334;16.206;2023-11-21T15:15:42;14.85;;;10.43;;
33810;SDS011;20119;48.334;16.206;2023-11-21T15:18:25;17.48;;;10.90;;
33810;SDS011;20119;48.334;16.206;2023-11-21T15:21:02;13.50;;;10.15;;
33810;SDS011;20119;48.334;16.206;2023-11-21T15:23:39;16.08;;;11.00;;
33810;SDS011;20119;48.334;16.206;2023-11-21T15:26:16;17.10;;;10.50;;
33810;SDS011;20119;48.334;16.206;2023-11-21T15:28:53;16.00;;;10.23;;
33810;SDS011;20119;48.334;16.206;2023-11-21T15:31:30;15.65;;;10.50;;
33810;SDS011;20119;48.334;16.206;2023-11-21T15:34:28;15.18;;;9.90;;
33810;SDS011;20119;48.334;16.206;2023-11-21T15:37:00;16.45;;;10.48;;
33810;SDS011;20119;48.334;16.206;2023-11-21T15:39:37;17.20;;;10.93;;
33810;SDS011;20119;48.334;16.206;2023-11-21T15:42:12;15.07;;;10.38;;
33810;SDS011;20119;48.334;16.206;2023-11-21T15:47:31;16.50;;;11.30;;
33810;SDS011;20119;48.334;16.206;2023-11-21T15:50:13;17.65;;;12.05;;
33810;SDS011;20119;48.334;16.206;2023-11-21T15:52:51;18.23;;;11.95;;
33810;SDS011;20119;48.334;16.206;2023-11-21T15:55:24;18.20;;;12.73;;
33810;SDS011;20119;48.334;16.206;2023-11-21T15:57:57;18.73;;;13.20;;
33810;SDS011;20119;48.334;16.206;2023-11-21T16:00:33;17.75;;;13.10;;
33810;SDS011;20119;48.334;16.206;2023-11-21T16:03:08;25.70;;;14.02;;
33810;SDS011;20119;48.334;16.206;2023-11-21T16:05:46;23.35;;;13.38;;
33810;SDS011;20119;48.334;16.206;2023-11-21T16:08:21;22.45;;;13.25;;
33810;SDS011;20119;48.334;16.206;2023-11-21T16:11:00;20.35;;;13.30;;
33810;SDS011;20119;48.334;16.206;2023-11-21T16:13:32;18.13;;;12.35;;
33810;SDS011;20119;48.334;16.206;2023-11-21T16:16:04;18.77;;;14.23;;
33810;SDS011;20119;48.334;16.206;2023-11-21T16:18:37;22.58;;;13.73;;
33810;SDS011;20119;48.334;16.206;2023-11-21T16:21:17;19.42;;;13.02;;
33810;SDS011;20119;48.334;16.206;2023-11-21T16:23:58;19.45;;;12.90;;
33810;SDS011;20119;48.334;16.206;2023-11-21T16:34:12;18.75;;;14.18;;
33810;SDS011;20119;48.334;16.206;2023-11-21T16:37:03;18.10;;;14.15;;
33810;SDS011;20119;48.334;16.206;2023-11-21T16:39:40;19.05;;;13.95;;
33810;SDS011;20119;48.334;16.206;2023-11-21T16:42:14;20.77;;;13.70;;
33810;SDS011;20119;48.334;16.206;2023-11-21T16:44:49;22.52;;;14.38;;
33810;SDS011;20119;48.334;16.206;2023-11-21T16:47:26;21.42;;;13.85;;
33810;SDS011;20119;48.334;16.206;2023-11-21T16:50:01;22.38;;;13.68;;
33810;SDS011;20119;48.334;16.206;2023-11-21T16:52:39;20.33;;;14.13;;
33810;SDS011;20119;48.334;16.206;2023-11-21T16:55:16;18.42;;;13.45;;
33810;SDS011;20119;48.334;16.206;2023-11-21T16:57:53;21.25;;;14.20;;
33810;SDS011;20119;48.334;16.206;2023-11-21T17:00:36;17.15;;;14.18;;
33810;SDS011;20119;48.334;16.206;2023-11-21T17:03:08;17.77;;;14.15;;
33810;SDS011;20119;48.334;16.206;2023-11-21T17:05:51;22.23;;;15.20;;
33810;SDS011;20119;48.334;16.206;2023-11-21T17:08:42;20.77;;;15.20;;
33810;SDS011;20119;48.334;16.206;2023-11-21T17:11:20;24.58;;;16.65;;
33810;SDS011;20119;48.334;16.206;2023-11-21T17:14:24;24.35;;;16.30;;
33810;SDS011;20119;48.334;16.206;2023-11-21T17:22:32;23.65;;;17.05;;
33810;SDS011;20119;48.334;16.206;2023-11-21T17:25:12;21.80;;;16.35;;
33810;SDS011;20119;48.334;16.206;2023-11-21T17:27:52;22.17;;;15.80;;
33810;SDS011;20119;48.334;16.206;2023-11-21T17:30:40;20.88;;;15.77;;
33810;SDS011;20119;48.334;16.206;2023-11-21T17:33:20;22.75;;;15.77;;
33810;SDS011;20119;48.334;16.206;2023-11-21T17:38:33;21.67;;;15.02;;
33810;SDS011;20119;48.334;16.206;2023-11-21T17:41:18;20.15;;;13.60;;
33810;SDS011;20119;48.334;16.206;2023-11-21T17:46:48;17.95;;;14.23;;
33810;SDS011;20119;48.334;16.206;2023-11-21T17:49:34;19.55;;;14.93;;
33810;SDS011;20119;48.334;16.206;2023-11-21T17:52:21;18.77;;;14.40;;
33810;SDS011;20119;48.334;16.206;2023-11-21T17:55:11;20.42;;;15.07;;
33810;SDS011;20119;48.334;16.206;2023-11-21T17:57:50;18.30;;;14.50;;
33810;SDS011;20119;48.334;16.206;2023-11-21T18:00:33;21.90;;;15.05;;
33810;SDS011;20119;48.334;16.206;2023-11-21T18:08:35;20.17;;;14.90;;
33810;SDS011;20119;48.334;16.206;2023-11-21T18:11:18;20.70;;;15.50;;
